Time,TemperatureF,DewpointF,PressureIn,WindDirection,WindDirectionDegrees,WindSpeedMPH,WindSpeedGustMPH,Humidity,HourlyPrecipIn,Conditions,Clouds,dailyrainin,SoftwareType,DateUTC
2013-04-09 16:00:00,79.0,64.1,29.58,South,180,4.7,4.7,60,0.00,,,0.00,WUHU216HW,2013-04-09 21:00:00,
2013-04-09 16:05:00,78.8,63.9,29.58,South,180,6.3,9.8,60,0.00,,,0.00,WUHU216HW,2013-04-09 21:05:00,
2013-04-09 16:10:00,78.8,63.9,29.58,SSE,158,6.9,9.8,60,0.00,,,0.00,WUHU216HW,2013-04-09 21:10:00,
2013-04-09 16:15:00,78.8,63.9,29.58,SE,135,4.7,11.6,60,0.00,,,0.00,WUHU216HW,2013-04-09 21:15:00,
2013-04-09 16:20:00,78.8,63.9,29.58,South,180,5.6,11.6,60,0.00,,,0.00,WUHU216HW,2013-04-09 21:20:00,
2013-04-09 16:25:00,78.8,63.9,29.58,North,0,0.0,7.6,60,0.00,,,0.00,WUHU216HW,2013-04-09 21:25:00,
2013-04-09 16:30:00,78.8,63.9,29.58,South,180,5.4,5.6,60,0.00,,,0.00,WUHU216HW,2013-04-09 21:30:00,
2013-04-09 16:35:00,78.8,63.9,29.58,North,0,0.0,5.4,60,0.00,,,0.00,WUHU216HW,2013-04-09 21:35:00,
2013-04-09 16:40:00,78.8,63.9,29.58,North,0,0.0,5.4,60,0.00,,,0.00,WUHU216HW,2013-04-09 21:40:00,
2013-04-09 16:45:00,78.8,63.9,29.57,North,0,0.0,0.0,60,0.00,,,0.00,WUHU216HW,2013-04-09 21:45:00,
2013-04-09 16:50:00,78.8,63.9,29.57,North,0,0.0,0.0,60,0.00,,,0.00,WUHU216HW,2013-04-09 21:50:00,
2013-04-09 16:55:00,78.7,63.2,29.57,North,0,0.0,0.0,59,0.00,,,0.00,WUHU216HW,2013-04-09 21:55:00,
2013-04-09 17:00:00,78.7,63.2,29.58,North,0,0.0,0.0,59,0.00,,,0.00,WUHU216HW,2013-04-09 22:00:00,
2013-04-09 17:05:00,78.7,63.2,29.58,North,0,0.0,0.0,59,0.00,,,0.00,WUHU216HW,2013-04-09 22:05:00,
2013-04-09 17:10:00,78.7,63.2,29.57,North,0,0.0,0.0,59,0.00,,,0.00,WUHU216HW,2013-04-09 22:10:00,
2013-04-09 17:15:00,78.7,63.2,29.57,North,0,0.0,0.0,59,0.00,,,0.00,WUHU216HW,2013-04-09 22:15:00,
2013-04-09 17:20:00,78.8,63.4,29.57,North,0,0.0,0.0,59,0.00,,,0.00,WUHU216HW,2013-04-09 22:20:00,
2013-04-09 17:25:00,78.7,63.2,29.58,North,0,0.0,0.0,59,0.00,,,0.00,WUHU216HW,2013-04-09 22:25:00,
2013-04-09 17:30:00,78.7,63.2,29.58,North,0,0.0,0.0,59,0.00,,,0.00,WUHU216HW,2013-04-09 22:30:00,
2013-04-09 17:35:00,78.7,63.7,29.58,North,0,0.0,0.0,60,0.00,,,0.00,WUHU216HW,2013-04-09 22:35:00,
2013-04-09 17:40:00,78.5,63.5,29.58,North,0,0.0,0.0,60,0.00,,,0.00,WUHU216HW,2013-04-09 22:40:00,
2013-04-09 17:45:00,78.3,63.4,29.58,North,0,0.0,0.0,60,0.00,,,0.00,WUHU216HW,2013-04-09 22:45:00,
2013-04-09 17:50:00,78.3,63.4,29.58,SE,135,1.8,2.0,60,0.00,,,0.00,WUHU216HW,2013-04-09 22:50:00,
2013-04-09 17:56:00,78.1,63.2,29.58,SE,135,1.1,2.0,60,0.00,,,0.00,WUHU216HW,2013-04-09 22:56:00,
2013-04-09 18:01:00,78.1,63.2,29.58,SW,225,3.8,3.8,60,0.00,,,0.00,WUHU216HW,2013-04-09 23:01:00,
2013-04-09 18:06:00,78.1,63.2,29.58,SSE,158,3.4,4.3,60,0.00,,,0.00,WUHU216HW,2013-04-09 23:06:00,
2013-04-09 18:11:00,78.1,63.2,29.58,SE,135,2.2,5.1,60,0.00,,,0.00,WUHU216HW,2013-04-09 23:11:00,
2013-04-09 18:17:00,78.3,62.8,29.58,North,0,0.0,5.1,59,0.00,,,0.00,WUHU216HW,2013-04-09 23:17:00,
2013-04-09 18:22:00,78.5,63.0,29.58,North,0,0.0,2.2,59,0.00,,,0.00,WUHU216HW,2013-04-09 23:22:00,
2013-04-09 18:27:00,78.5,63.0,29.58,North,0,0.0,0.0,59,0.00,,,0.00,WUHU216HW,2013-04-09 23:27:00,
2013-04-09 18:32:00,78.5,63.0,29.59,North,0,0.0,0.0,59,0.00,,,0.00,WUHU216HW,2013-04-09 23:32:00,
2013-04-09 18:37:00,78.1,62.6,29.59,North,0,0.0,0.0,59,0.00,,,0.00,WUHU216HW,2013-04-09 23:37:00,
2013-04-09 18:42:00,77.9,63.0,29.59,North,0,0.0,0.0,60,0.00,,,0.00,WUHU216HW,2013-04-09 23:42:00,
2013-04-09 18:47:00,77.8,62.8,29.59,North,0,0.0,0.0,60,0.00,,,0.00,WUHU216HW,2013-04-09 23:47:00,
2013-04-09 18:53:00,77.8,62.8,29.59,North,0,0.0,0.0,60,0.00,,,0.00,WUHU216HW,2013-04-09 23:53:00,
2013-04-09 18:58:00,77.6,62.6,29.59,North,0,0.0,0.0,60,0.00,,,0.00,WUHU216HW,2013-04-09 23:58:00,
2013-04-09 19:03:00,77.6,62.6,29.59,North,0,0.0,0.0,60,0.00,,,0.00,WUHU216HW,2013-04-10 00:03:00,
2013-04-09 19:08:00,77.4,62.9,29.59,North,0,0.0,0.0,61,0.00,,,0.00,WUHU216HW,2013-04-10 00:08:00,
2013-04-09 19:13:00,77.4,62.9,29.59,North,0,0.0,0.0,61,0.00,,,0.00,WUHU216HW,2013-04-10 00:13:00,
2013-04-09 19:18:00,77.4,62.9,29.59,North,0,0.0,0.0,61,0.00,,,0.00,WUHU216HW,2013-04-10 00:18:00,
2013-04-09 19:23:00,77.4,62.9,29.60,North,0,0.0,0.0,61,0.00,,,0.00,WUHU216HW,2013-04-10 00:23:00,
2013-04-09 19:28:00,77.4,62.9,29.60,North,0,0.0,0.0,61,0.00,,,0.00,WUHU216HW,2013-04-10 00:28:00,
2013-04-09 19:33:00,77.4,62.9,29.60,ESE,113,9.8,9.8,61,0.00,,,0.00,WUHU216HW,2013-04-10 00:33:00,
2013-04-09 19:38:00,77.2,63.2,29.60,SSE,158,5.4,12.3,62,0.00,,,0.00,WUHU216HW,2013-04-10 00:38:00,
2013-04-09 19:43:00,77.0,63.5,29.60,ESE,113,5.8,12.3,63,0.00,,,0.00,WUHU216HW,2013-04-10 00:43:00,
2013-04-09 19:48:00,76.7,63.1,29.61,SSW,203,5.6,11.2,63,0.00,,,0.00,WUHU216HW,2013-04-10 00:48:00,
2013-04-09 19:53:00,76.3,63.6,29.61,SSE,158,5.6,13.4,65,0.00,,,0.00,WUHU216HW,2013-04-10 00:53:00,
2013-04-09 19:58:00,76.0,63.7,29.61,South,180,5.6,13.4,66,0.00,,,0.00,WUHU216HW,2013-04-10 00:58:00,
2013-04-09 20:03:00,75.6,63.5,29.60,SSE,158,4.7,11.2,66,0.00,,,0.00,WUHU216HW,2013-04-10 01:03:00,
2013-04-09 20:08:00,75.2,63.6,29.60,SSE,158,3.4,9.4,67,0.00,,,0.00,WUHU216HW,2013-04-10 01:08:00,
2013-04-09 20:13:00,74.9,63.2,29.61,SSE,158,4.7,9.4,67,0.00,,,0.00,WUHU216HW,2013-04-10 01:13:00,
2013-04-09 20:18:00,74.5,63.3,29.60,SSE,158,4.3,8.5,68,0.00,,,0.00,WUHU216HW,2013-04-10 01:18:00,
2013-04-09 20:23:00,74.3,63.5,29.61,South,180,5.1,9.2,69,0.00,,,0.00,WUHU216HW,2013-04-10 01:23:00,
2013-04-09 20:28:00,74.2,63.4,29.61,South,180,4.0,9.2,69,0.00,,,0.00,WUHU216HW,2013-04-10 01:28:00,
2013-04-09 20:33:00,74.0,63.2,29.61,SE,135,4.7,7.6,69,0.00,,,0.00,WUHU216HW,2013-04-10 01:33:00,
2013-04-09 20:38:00,73.8,63.6,29.61,SSE,158,4.0,7.6,70,0.00,,,0.00,WUHU216HW,2013-04-10 01:38:00,
2013-04-09 20:43:00,73.8,63.6,29.61,SE,135,3.6,6.5,70,0.00,,,0.00,WUHU216HW,2013-04-10 01:43:00,
2013-04-09 20:48:00,73.8,63.9,29.61,SE,135,4.3,5.8,71,0.00,,,0.00,WUHU216HW,2013-04-10 01:48:00,
2013-04-09 20:53:00,73.8,63.9,29.60,ESE,113,3.1,5.8,71,0.00,,,0.00,WUHU216HW,2013-04-10 01:53:00,
2013-04-09 20:58:00,73.6,63.7,29.60,North,0,0.0,5.1,71,0.00,,,0.00,WUHU216HW,2013-04-10 01:58:00,
2013-04-09 21:03:00,73.4,63.5,29.60,North,0,0.0,3.1,71,0.00,,,0.00,WUHU216HW,2013-04-10 02:03:00,
2013-04-09 21:08:00,73.4,63.5,29.60,East,90,3.8,3.8,71,0.00,,,0.00,WUHU216HW,2013-04-10 02:08:00,
2013-04-09 21:13:00,73.3,63.4,29.61,ESE,113,2.9,3.8,71,0.00,,,0.00,WUHU216HW,2013-04-10 02:13:00,
2013-04-09 21:18:00,73.1,63.2,29.61,SE,135,2.5,4.9,71,0.00,,,0.00,WUHU216HW,2013-04-10 02:18:00,
2013-04-09 21:23:00,73.1,63.2,29.61,ESE,113,2.7,4.9,71,0.00,,,0.00,WUHU216HW,2013-04-10 02:23:00,
2013-04-09 21:28:00,73.1,63.2,29.61,North,0,0.0,2.7,71,0.00,,,0.00,WUHU216HW,2013-04-10 02:28:00,
2013-04-09 21:33:00,73.1,63.2,29.62,SE,135,3.4,4.0,71,0.00,,,0.00,WUHU216HW,2013-04-10 02:33:00,
2013-04-09 21:38:00,73.1,63.2,29.62,North,0,0.0,4.0,71,0.00,,,0.00,WUHU216HW,2013-04-10 02:38:00,
2013-04-09 21:43:00,73.1,63.2,29.63,North,0,0.0,3.4,71,0.00,,,0.00,WUHU216HW,2013-04-10 02:43:00,
2013-04-09 21:48:00,73.3,63.0,29.63,North,0,0.0,0.0,70,0.00,,,0.00,WUHU216HW,2013-04-10 02:48:00,
2013-04-09 21:53:00,73.3,63.0,29.62,North,0,0.0,0.0,70,0.00,,,0.00,WUHU216HW,2013-04-10 02:53:00,
2013-04-09 21:58:00,73.1,62.8,29.62,North,0,0.0,0.0,70,0.00,,,0.00,WUHU216HW,2013-04-10 02:58:00,
2013-04-09 22:03:00,73.1,62.8,29.62,North,0,0.0,0.0,70,0.00,,,0.00,WUHU216HW,2013-04-10 03:03:00,
2013-04-09 22:08:00,73.1,62.8,29.62,North,0,0.0,0.0,70,0.00,,,0.00,WUHU216HW,2013-04-10 03:08:00,
2013-04-09 22:13:00,72.9,62.6,29.64,North,0,0.0,0.0,70,0.00,,,0.00,WUHU216HW,2013-04-10 03:13:00,
2013-04-09 22:18:00,72.0,60.4,29.64,North,0,0.0,0.0,67,0.00,,,0.00,WUHU216HW,2013-04-10 03:18:00,
2013-04-09 22:23:00,70.4,57.6,29.65,North,0,0.0,0.0,64,0.00,,,0.00,WUHU216HW,2013-04-10 03:23:00,
2013-04-09 22:28:00,68.8,56.1,29.65,North,0,0.0,0.0,64,0.00,,,0.00,WUHU216HW,2013-04-10 03:28:00,
2013-04-09 22:33:00,67.3,54.7,29.66,North,0,0.0,0.0,64,0.00,,,0.00,WUHU216HW,2013-04-10 03:33:00,
2013-04-09 22:38:00,65.9,53.4,29.67,North,0,0.0,0.0,64,0.00,,,0.00,WUHU216HW,2013-04-10 03:38:00,
2013-04-09 22:43:00,64.8,52.3,29.68,North,0,0.0,0.0,64,0.00,,,0.00,WUHU216HW,2013-04-10 03:43:00,
2013-04-09 22:48:00,63.4,51.4,29.67,North,0,0.0,0.0,65,0.00,,,0.00,WUHU216HW,2013-04-10 03:48:00,
2013-04-09 22:53:00,62.6,50.7,29.67,West,270,9.2,9.6,65,0.00,,,0.00,WUHU216HW,2013-04-10 03:53:00,
2013-04-09 22:58:00,61.4,49.5,29.67,WSW,248,10.7,11.2,65,0.00,,,0.00,WUHU216HW,2013-04-10 03:58:00,
2013-04-09 23:00:00,61.2,49.4,29.67,West,270,8.5,11.2,65,0.00,,,0.00,WUHU216HW,2013-04-10 04:00:00,
2013-04-09 23:05:00,60.3,48.5,29.68,WNW,293,10.5,11.2,65,0.00,,,0.00,WUHU216HW,2013-04-10 04:05:00,
2013-04-09 23:10:00,59.6,47.3,29.70,West,270,8.5,11.2,64,0.00,,,0.00,WUHU216HW,2013-04-10 04:10:00,
2013-04-09 23:15:00,59.0,47.3,29.72,North,0,0.0,11.2,65,0.00,,,0.00,WUHU216HW,2013-04-10 04:15:00,
2013-04-09 23:20:00,58.9,47.5,29.72,North,0,0.0,8.5,66,0.00,,,0.00,WUHU216HW,2013-04-10 04:20:00,
2013-04-09 23:25:00,58.0,46.6,29.73,West,270,15.4,18.8,66,0.00,,,0.00,WUHU216HW,2013-04-10 04:25:00,
2013-04-09 23:30:00,57.1,45.8,29.74,West,270,20.6,20.6,66,0.00,,,0.00,WUHU216HW,2013-04-10 04:30:00,
2013-04-09 23:35:00,56.5,45.6,29.75,West,270,10.7,20.6,67,0.00,,,0.00,WUHU216HW,2013-04-10 04:35:00,
2013-04-09 23:40:00,56.2,45.4,29.74,West,270,13.4,20.6,67,0.00,,,0.00,WUHU216HW,2013-04-10 04:40:00,
2013-04-09 23:45:00,55.4,44.6,29.74,West,270,19.2,19.2,67,0.00,,,0.00,WUHU216HW,2013-04-10 04:45:00,
2013-04-09 23:50:00,54.7,43.9,29.73,NNW,338,13.9,19.2,67,0.00,,,0.00,WUHU216HW,2013-04-10 04:50:00,
2013-04-09 23:55:00,54.0,43.7,29.74,West,270,5.6,19.2,68,0.00,,,0.00,WUHU216HW,2013-04-10 04:55:00,